Main page
METAR-TAF:

METAR-TAF

Airports :

Sherbrooke Airport

Sherbrooke, Quebec, Canada

latitude: 45-24N, longitude: 071-53W, elevation: 558 ft

Current weather observation

The report was made 1 hour and 9 minutes ago, at 02:00 UTC
Wind 8 mph from the East/Northeast
Temperature 50°F
Humidity 62%
Pressure 30.13 in. Hg
Visibility: 9 miles
Clear sky

METAR: CYSC 230200Z AUTO 07007KT 9SM CLR 10/03 A3013 RMK SLP208

Time: 23:09 (03:09 UTC)

Forecast

The report was made 3 hours and 31 minutes ago, at 23:38 UTC
Forecast valid from 23 at 00 UTC to 23 at 03 UTC
Wind 8 mph from the North/Northeast
Visibility: 6 miles
Few clouds at a height of 2000 ft
Few clouds at a height of 24000 ft

TAF: CYSC 222338Z 2300/2303 03007KT P6SM FEW020 FEW240 RMK FCST BASED ON AUTO OBS. NXT FCST WILL BE ISSUED AT 231045Z

Weather observations and forecasts of more than 4000 airports (METAR and TAF reports).

The available stations are represented by yellow and red dots on the map.

Hover mouse over dot to see the name of the station.

Then click to see weather observations and forecasts.

To change the map : click on the green buttons with a black cross to zoom in, on the green button with a dash to zoom out, or on the green arrows for adjacent maps.


METAR-TAF: